Olney, United Kingdom
Current Conditions -  °F | °C
As of 10:50 AM on Friday 28 Nov 2014 (Local Time) from EGTC Reporting Station
Haze Haze  
Wind Chill: 52°   Ceiling: 300
Heat Index: 52°   Visibility: 0.75mi
Dew Point: 50°   Wind: 10mph
Humidity: 94%   Direction: 70°ENE
Pressure: 29.62"   Gusts: NA
Location:  52.15°N, 0.7°W
Report Text: EGTC 281050Z 07009KT 1200 BR OVC003 11/10 Q1003
Loading
Personal Weather Stations






























Interactive Weather Map New forecast layout! Learn more

10-Day Weather Forecast

Advertisements
Track Severe Weather on mobile